createdAt,value
2023-03-06T08:37:41.104Z,51.290905
2023-03-06T08:38:41.066Z,51.291161
2023-03-06T08:39:41.059Z,51.291138
2023-03-06T08:40:40.999Z,51.291233
2023-03-06T08:41:40.988Z,51.291229
2023-03-06T08:42:41.010Z,51.291218
2023-03-06T08:43:40.998Z,51.291229
2023-03-06T08:44:40.978Z,51.291264
2023-03-06T08:45:41.098Z,51.291233
2023-03-06T08:46:40.936Z,51.291183
2023-03-06T08:47:40.918Z,51.291233
2023-03-06T08:48:40.914Z,51.291237
2023-03-06T08:49:40.934Z,51.291248
2023-03-06T08:50:40.892Z,51.291225
2023-03-06T08:51:40.874Z,51.291283
2023-03-06T08:52:40.888Z,51.291210
2023-03-06T08:53:43.627Z,51.291191
2023-03-06T08:54:41.881Z,51.291222
2023-03-06T08:55:40.898Z,51.291225
2023-03-06T08:56:40.851Z,51.291248
2023-03-06T08:57:40.802Z,51.291225
2023-03-06T08:58:40.799Z,51.291206
2023-03-06T08:59:40.830Z,51.291214
2023-03-06T09:00:40.851Z,51.291187
2023-03-06T09:01:40.822Z,51.291229
2023-03-06T09:02:40.996Z,51.291271
2023-03-06T09:03:42.621Z,51.291237
2023-03-06T09:04:40.746Z,51.291222
2023-03-06T09:05:40.741Z,51.291168
2023-03-06T09:06:40.713Z,51.291122
2023-03-06T09:07:40.693Z,51.291172
2023-03-06T09:08:40.709Z,51.291264
2023-03-06T09:09:40.693Z,51.291271
2023-03-06T09:10:40.706Z,51.291206
2023-03-06T09:11:40.656Z,51.291153
2023-03-06T09:12:49.862Z,51.291145
2023-03-06T09:13:40.779Z,51.291145
2023-03-06T09:14:40.630Z,51.291153
2023-03-06T09:15:40.750Z,51.291203
2023-03-06T09:16:41.079Z,51.291218
2023-03-06T09:17:40.695Z,51.291306
2023-03-06T09:18:40.595Z,51.291222
2023-03-06T09:19:40.609Z,51.291260
2023-03-06T09:20:40.565Z,51.291161
2023-03-06T09:21:40.542Z,51.291237
2023-03-06T09:22:40.550Z,51.291138
2023-03-06T09:23:40.513Z,51.291267
2023-03-06T09:24:40.781Z,51.291191
2023-03-06T09:25:40.585Z,51.291199
2023-03-06T09:26:46.161Z,51.291206
2023-03-06T09:27:41.499Z,51.291218
2023-03-06T09:28:40.442Z,51.291183
2023-03-06T09:29:40.457Z,51.291122
2023-03-06T09:30:40.591Z,51.291157
2023-03-06T09:31:40.435Z,51.291248
2023-03-06T09:32:40.572Z,51.291191
2023-03-06T09:33:40.445Z,51.291248
2023-03-06T09:34:40.413Z,51.291191
2023-03-06T09:35:40.465Z,51.291317
2023-03-06T09:36:55.644Z,51.291473
2023-03-06T09:37:41.393Z,51.291294
2023-03-06T09:38:40.381Z,51.291275
2023-03-06T09:39:40.380Z,51.291336
2023-03-06T09:40:40.378Z,51.291210
2023-03-06T09:41:40.305Z,51.291241
2023-03-06T09:42:40.308Z,51.291275
2023-03-06T09:43:40.327Z,51.291046
2023-03-06T09:44:40.284Z,51.291050
2023-03-06T09:45:40.350Z,51.291115
2023-03-06T09:46:40.273Z,51.291267
2023-03-06T09:47:40.230Z,51.291374
2023-03-06T09:48:40.237Z,51.291367
2023-03-06T09:49:40.244Z,51.291363
2023-03-06T09:50:40.260Z,51.291294
2023-03-06T09:51:40.191Z,51.291229
2023-03-06T09:52:40.214Z,51.291153
2023-03-06T09:53:40.187Z,51.291279
2023-03-06T09:54:40.157Z,51.291218
2023-03-06T09:55:40.216Z,51.291080
2023-03-06T09:56:40.154Z,51.291157
2023-03-06T09:57:40.117Z,51.291100
2023-03-06T09:58:40.120Z,51.291065
2023-03-06T09:59:40.112Z,51.291233
2023-03-06T10:00:40.115Z,51.291325
2023-03-06T10:01:40.085Z,51.291473
2023-03-06T10:02:40.197Z,51.291290
2023-03-06T10:03:40.097Z,51.291241
2023-03-06T10:04:40.158Z,51.291286
2023-03-06T10:05:40.100Z,51.291389
2023-03-06T10:06:40.026Z,51.291138
2023-03-06T10:07:40.025Z,51.291031
2023-03-06T10:08:40.009Z,51.291397
2023-03-06T10:09:39.990Z,51.291801
2023-03-06T10:10:40.050Z,51.291222
2023-03-06T10:11:39.975Z,51.291210
2023-03-06T10:12:39.983Z,51.291294
2023-03-06T10:13:39.950Z,51.291492
2023-03-06T10:14:39.935Z,51.291359
2023-03-06T10:15:39.977Z,51.291393
2023-03-06T10:16:39.926Z,51.291313
2023-03-06T10:17:42.193Z,51.291267
2023-03-06T10:18:39.946Z,51.291279
2023-03-06T10:19:39.908Z,51.291401
2023-03-06T10:20:40.393Z,51.291424
2023-03-06T10:21:39.909Z,51.291294
2023-03-06T10:22:39.852Z,51.291286
2023-03-06T10:23:39.834Z,51.291393
2023-03-06T10:24:39.828Z,51.291264
2023-03-06T10:25:39.849Z,51.291298
2023-03-06T10:26:39.963Z,51.291405
2023-03-06T10:27:39.792Z,51.291515
2023-03-06T10:28:39.838Z,51.291466
2023-03-06T10:29:41.048Z,51.291527
2023-03-06T10:30:39.760Z,51.291481
2023-03-06T10:31:39.805Z,51.291489
2023-03-06T10:32:47.916Z,51.291481
2023-03-06T10:33:39.755Z,51.291256
2023-03-06T10:34:39.743Z,51.291225
2023-03-06T10:35:39.703Z,51.291206
2023-03-06T10:36:39.696Z,51.291317
2023-03-06T10:37:39.767Z,51.291309
2023-03-06T10:38:39.666Z,51.291378
2023-03-06T10:39:39.652Z,51.291298
2023-03-06T10:40:39.703Z,51.291229
2023-03-06T10:41:39.651Z,51.291130
2023-03-06T10:42:39.693Z,51.291130
2023-03-06T10:43:39.637Z,51.291130
2023-03-06T10:44:39.656Z,51.291920
2023-03-06T10:45:48.974Z,51.291290
2023-03-06T10:46:40.740Z,51.291256
2023-03-06T10:47:39.589Z,51.291405
2023-03-06T10:48:41.709Z,51.291405
2023-03-06T10:49:39.557Z,51.291393
2023-03-06T10:50:39.563Z,51.291397
2023-03-06T10:51:39.542Z,51.291328
2023-03-06T10:52:39.520Z,51.291210
2023-03-06T10:53:39.562Z,51.291290
2023-03-06T10:54:39.508Z,51.291286
2023-03-06T10:55:39.508Z,51.291241
2023-03-06T10:56:39.538Z,51.291191
2023-03-06T10:57:39.471Z,51.291298
2023-03-06T10:58:39.504Z,51.291214
2023-03-06T10:59:39.436Z,51.291149
2023-03-06T11:00:39.441Z,51.291229
2023-03-06T11:01:39.444Z,51.291157
2023-03-06T11:02:39.434Z,51.291248
2023-03-06T11:03:39.413Z,51.291241
2023-03-06T11:04:39.390Z,51.291222
2023-03-06T11:05:39.392Z,51.291214
2023-03-06T11:06:39.368Z,51.291191
2023-03-06T11:07:39.360Z,51.291222
2023-03-06T11:08:39.347Z,51.291241
2023-03-06T11:09:39.369Z,51.291168
2023-03-06T11:10:39.303Z,51.291161
2023-03-06T11:11:39.306Z,51.291203
2023-03-06T11:12:39.357Z,51.291210
2023-03-06T11:13:39.277Z,51.291241
2023-03-06T11:14:39.329Z,51.291157
2023-03-06T11:15:39.942Z,51.291279
2023-03-06T11:16:39.292Z,51.291191
2023-03-06T11:17:39.235Z,51.291142
2023-03-06T11:18:39.232Z,51.291187
2023-03-06T11:19:39.257Z,51.291187
2023-03-06T11:20:50.985Z,51.291157
2023-03-06T11:21:39.231Z,51.291134
2023-03-06T11:22:39.218Z,51.291195
2023-03-06T11:23:39.182Z,51.290981
2023-03-06T11:24:39.796Z,51.290924
2023-03-06T11:25:39.209Z,51.291023
2023-03-06T11:26:39.143Z,51.291183
2023-03-06T11:27:39.125Z,51.291107
2023-03-06T11:28:39.112Z,51.291119
2023-03-06T11:29:39.217Z,51.291161
2023-03-06T11:30:39.128Z,51.291176
2023-03-06T11:31:39.175Z,51.291218
2023-03-06T11:32:39.103Z,51.291218
2023-03-06T11:33:39.061Z,51.291294
2023-03-06T11:34:39.028Z,51.291122
2023-03-06T11:35:39.098Z,51.291222
2023-03-06T11:36:39.016Z,51.291130
2023-03-06T11:37:39.007Z,51.291176
2023-03-06T11:38:39.043Z,51.291191
2023-03-06T11:39:38.981Z,51.291145
2023-03-06T11:40:39.007Z,51.291187
2023-03-06T11:41:38.992Z,51.291210
2023-03-06T11:42:38.950Z,51.291183
2023-03-06T11:43:38.963Z,51.291126
2023-03-06T11:44:38.968Z,51.291058
2023-03-06T11:45:38.908Z,51.291191
2023-03-06T11:46:38.972Z,51.291222
2023-03-06T11:47:38.885Z,51.291225
2023-03-06T11:48:38.904Z,51.291271
2023-03-06T11:49:38.866Z,51.291222
2023-03-06T11:50:39.852Z,51.291046
2023-03-06T11:51:38.886Z,51.290924
2023-03-06T11:52:38.839Z,51.291065
2023-03-06T11:53:38.849Z,51.291218
2023-03-06T11:54:38.791Z,51.291176
2023-03-06T11:55:38.846Z,51.291225
2023-03-06T11:56:38.825Z,51.291370
2023-03-06T11:57:38.789Z,51.291431
2023-03-06T11:58:38.784Z,51.291325
2023-03-06T11:59:38.795Z,51.291199
2023-03-06T12:00:38.740Z,51.291168
2023-03-06T12:01:38.803Z,51.291027
2023-03-06T12:02:38.739Z,51.291149
2023-03-06T12:03:38.711Z,51.291134
2023-03-06T12:04:38.729Z,51.291309
2023-03-06T12:05:38.788Z,51.291260
2023-03-06T12:06:38.713Z,51.291218
2023-03-06T12:07:38.728Z,51.291370
2023-03-06T12:08:38.662Z,51.291256
2023-03-06T12:09:38.637Z,51.291080
2023-03-06T12:10:38.654Z,51.291115
2023-03-06T12:11:38.638Z,51.291317
2023-03-06T12:12:38.662Z,51.291286
2023-03-06T12:13:38.600Z,51.291252
2023-03-06T12:14:38.625Z,51.291096
2023-03-06T12:15:38.600Z,51.291321
2023-03-06T12:16:38.688Z,51.291233
2023-03-06T12:17:38.554Z,51.291218
2023-03-06T12:18:38.592Z,51.291054
2023-03-06T12:19:38.555Z,51.291023
2023-03-06T12:20:38.514Z,51.290951
2023-03-06T12:21:38.529Z,51.291016
2023-03-06T12:22:38.500Z,51.291142
2023-03-06T12:23:39.557Z,51.291061
2023-03-06T12:24:38.485Z,51.291100
2023-03-06T12:25:38.463Z,51.291157
2023-03-06T12:26:38.495Z,51.291237
2023-03-06T12:27:38.446Z,51.291115
2023-03-06T12:28:38.449Z,51.291107
2023-03-06T12:29:38.455Z,51.291103
2023-03-06T12:30:38.429Z,51.291290
2023-03-06T12:31:38.408Z,51.291241
2023-03-06T12:32:38.435Z,51.291176
2023-03-06T12:33:38.423Z,51.291199
2023-03-06T12:34:38.399Z,51.291252
2023-03-06T12:35:38.416Z,51.291191
2023-03-06T12:36:38.369Z,51.291225
2023-03-06T12:37:38.322Z,51.291172
2023-03-06T12:38:38.315Z,51.291214
2023-03-06T12:39:38.331Z,51.291233
2023-03-06T12:40:38.301Z,51.291138
2023-03-06T12:41:38.275Z,51.291245
2023-03-06T12:42:38.259Z,51.291306
2023-03-06T12:43:40.074Z,51.291115
2023-03-06T12:44:38.264Z,51.291191
2023-03-06T12:45:38.402Z,51.291210
2023-03-06T12:46:38.231Z,51.291046
2023-03-06T12:47:38.228Z,51.291126
2023-03-06T12:48:38.212Z,51.291004
2023-03-06T12:49:38.251Z,51.291088
2023-03-06T12:50:38.169Z,51.291454
2023-03-06T12:51:38.170Z,51.291405
2023-03-06T12:52:38.146Z,51.291328
2023-03-06T12:53:38.137Z,51.291290
2023-03-06T12:56:03.428Z,51.291260
2023-03-06T12:56:09.897Z,51.291260
2023-03-06T12:57:09.862Z,51.291222
2023-03-06T12:58:09.899Z,51.291317
2023-03-06T12:59:09.849Z,51.291271
2023-03-06T13:00:09.869Z,51.291229
2023-03-06T13:01:10.046Z,51.291286
2023-03-06T13:02:09.858Z,51.291271
2023-03-06T13:03:09.817Z,51.291267
2023-03-06T13:04:09.807Z,51.291126
2023-03-06T13:05:09.809Z,51.291111
2023-03-06T13:06:09.759Z,51.291100
2023-03-06T13:07:09.754Z,51.291077
2023-03-06T13:08:09.780Z,51.291153
2023-03-06T13:09:09.737Z,51.291252
2023-03-06T13:10:10.206Z,51.291248
2023-03-06T13:11:09.687Z,51.291180
2023-03-06T13:12:09.695Z,51.291313
2023-03-06T13:13:09.687Z,51.291336
2023-03-06T13:14:09.831Z,51.291241
2023-03-06T13:15:09.688Z,51.291225
2023-03-06T13:16:09.659Z,51.291267
2023-03-06T13:17:09.661Z,51.291298
2023-03-06T13:18:09.629Z,51.291298
2023-03-06T13:19:09.637Z,51.291283
2023-03-06T13:20:09.593Z,51.291199
2023-03-06T13:21:09.650Z,51.291225
2023-03-06T13:22:09.584Z,51.291222
2023-03-06T13:23:09.560Z,51.291157
2023-03-06T13:24:09.558Z,51.291183
2023-03-06T13:25:09.555Z,51.291233
2023-03-06T13:26:09.579Z,51.291172
2023-03-06T13:27:09.522Z,51.291237
2023-03-06T13:28:09.536Z,51.291225
2023-03-06T13:29:09.489Z,51.291172
2023-03-06T13:30:09.502Z,51.291149
2023-03-06T13:31:21.383Z,51.291122
2023-03-06T13:32:09.517Z,51.291157
2023-03-06T13:33:09.438Z,51.291130
2023-03-06T13:34:09.568Z,51.291195
2023-03-06T13:35:09.452Z,51.291203
2023-03-06T13:36:09.454Z,51.291183
2023-03-06T13:37:09.428Z,51.291203
2023-03-06T13:38:09.421Z,51.291145
2023-03-06T13:39:09.389Z,51.291233
2023-03-06T13:40:09.362Z,51.291279
2023-03-06T13:41:09.369Z,51.291389
2023-03-06T13:42:09.393Z,51.291416
2023-03-06T13:43:09.311Z,51.291405
2023-03-06T13:44:09.323Z,51.291405
2023-03-06T13:45:09.316Z,51.291439
2023-03-06T13:46:09.370Z,51.291462
2023-03-06T13:47:09.312Z,51.291599
2023-03-06T13:48:33.700Z,51.291393
2023-03-06T13:49:11.284Z,51.291248
2023-03-06T13:50:09.252Z,51.291328
2023-03-06T13:51:09.238Z,51.291271
2023-03-06T13:52:09.241Z,51.291237
2023-03-06T13:53:09.256Z,51.291256
2023-03-06T13:54:09.304Z,51.291409
2023-03-06T13:55:09.218Z,51.291595
2023-03-06T13:56:09.655Z,51.292049
2023-03-06T13:57:09.204Z,51.292202
2023-03-06T13:58:09.224Z,51.291840
2023-03-06T13:59:11.126Z,51.291599
2023-03-06T14:00:10.043Z,51.291668
2023-03-06T14:01:09.205Z,51.291309
2023-03-06T14:02:09.108Z,51.291191
2023-03-06T14:03:09.091Z,51.291073
2023-03-06T14:04:10.126Z,51.291000
2023-03-06T14:05:10.125Z,51.291172
2023-03-06T14:06:09.068Z,51.291260
2023-03-06T14:07:09.042Z,51.291279
2023-03-06T14:08:09.077Z,51.291279
2023-03-06T14:09:09.081Z,51.291180
2023-03-06T14:10:09.069Z,51.291111
2023-03-06T14:11:09.004Z,51.291206
2023-03-06T14:12:09.589Z,51.291222
2023-03-06T14:13:08.987Z,51.290817
2023-03-06T14:14:08.989Z,51.290482
2023-03-06T14:15:09.002Z,51.290798
2023-03-06T14:16:09.008Z,51.291088
2023-03-06T14:17:08.952Z,51.291451
2023-03-06T14:18:08.930Z,51.291367
2023-03-06T14:19:08.943Z,51.291321
2023-03-06T14:20:08.955Z,51.291210
2023-03-06T14:21:08.899Z,51.291077
2023-03-06T14:22:08.903Z,51.291195
2023-03-06T14:23:08.877Z,51.291061
2023-03-06T14:24:08.894Z,51.291164
2023-03-06T14:25:08.871Z,51.291058
2023-03-06T14:26:08.860Z,51.291267
2023-03-06T14:27:09.829Z,51.291145
2023-03-06T14:28:14.066Z,51.291187
2023-03-06T14:29:08.839Z,51.291164
2023-03-06T14:30:08.818Z,51.291019
2023-03-06T14:31:08.821Z,51.291100
2023-03-06T14:32:08.803Z,51.290993
2023-03-06T14:33:08.784Z,51.291161
2023-03-06T14:34:08.778Z,51.291157
2023-03-06T14:35:08.759Z,51.291176
2023-03-06T14:36:08.770Z,51.291458
2023-03-06T14:37:08.740Z,51.291401
2023-03-06T14:38:08.713Z,51.291393
2023-03-06T14:39:08.755Z,51.291252
2023-03-06T14:40:08.863Z,51.291180
2023-03-06T14:41:08.717Z,51.291172
2023-03-06T14:42:08.671Z,51.291153
2023-03-06T14:43:08.639Z,51.291416
2023-03-06T14:44:08.678Z,51.291473
2023-03-06T14:45:08.665Z,51.291134
2023-03-06T14:46:08.670Z,51.291199
2023-03-06T14:47:08.658Z,51.291142
2023-03-06T14:48:08.609Z,51.291180
2023-03-06T14:49:08.618Z,51.291222
2023-03-06T14:50:08.613Z,51.291126
2023-03-06T14:51:09.394Z,51.291260
2023-03-06T14:52:08.547Z,51.291294
2023-03-06T14:53:08.550Z,51.291092
2023-03-06T14:54:08.697Z,51.291035
2023-03-06T14:55:08.619Z,51.291153
2023-03-06T14:56:08.533Z,51.291142
2023-03-06T14:57:08.532Z,51.291237
2023-03-06T14:58:08.535Z,51.291210
2023-03-06T14:59:08.513Z,51.291359
2023-03-06T15:00:09.398Z,51.291523
2023-03-06T15:01:08.465Z,51.291370
2023-03-06T15:02:08.568Z,51.291222
2023-03-06T15:03:08.501Z,51.291233
2023-03-06T15:04:08.484Z,51.291183
2023-03-06T15:05:08.446Z,51.291195
2023-03-06T15:06:08.401Z,51.291077
2023-03-06T15:07:08.402Z,51.291367
2023-03-06T15:08:08.395Z,51.291313
2023-03-06T15:09:08.461Z,51.291042
2023-03-06T15:10:08.402Z,51.291199
2023-03-06T15:11:08.338Z,51.291210
2023-03-06T15:12:08.319Z,51.291191
2023-03-06T15:13:08.333Z,51.291191
2023-03-06T15:14:08.336Z,51.291203
2023-03-06T15:15:08.320Z,51.291340
2023-03-06T15:16:08.321Z,51.291233
2023-03-06T15:17:08.306Z,51.291172
2023-03-06T15:18:08.264Z,51.291180
2023-03-06T15:19:08.255Z,51.291145
2023-03-06T15:20:08.298Z,51.291107
2023-03-06T15:21:08.219Z,51.291145
2023-03-06T15:22:08.203Z,51.291130
2023-03-06T15:23:08.224Z,51.291145
2023-03-06T15:24:08.197Z,51.291298
2023-03-06T15:25:08.235Z,51.291153
2023-03-06T15:26:08.165Z,51.291264
2023-03-06T15:27:08.165Z,51.291348
2023-03-06T15:28:08.173Z,51.291321
2023-03-06T15:29:10.174Z,51.291176
2023-03-06T15:30:09.165Z,51.291145
2023-03-06T15:31:08.219Z,51.290966
2023-03-06T15:32:08.121Z,51.291134
2023-03-06T15:33:08.100Z,51.291103
2023-03-06T15:34:09.083Z,51.291279
2023-03-06T15:35:08.084Z,51.291245
2023-03-06T15:36:08.064Z,51.291153
2023-03-06T15:37:08.080Z,51.291031
2023-03-06T15:38:08.043Z,51.291210
2023-03-06T15:39:08.042Z,51.291271
2023-03-06T15:40:08.112Z,51.291206
2023-03-06T15:41:08.077Z,51.291157
2023-03-06T15:42:07.988Z,51.291222
2023-03-06T15:43:08.007Z,51.291199
2023-03-06T15:44:07.964Z,51.291214
2023-03-06T15:45:07.952Z,51.291245
2023-03-06T15:46:08.122Z,51.291225
2023-03-06T15:47:09.033Z,51.291180
2023-03-06T15:48:08.969Z,51.291206
2023-03-06T15:49:07.910Z,51.291080
2023-03-06T15:50:07.914Z,51.291203
2023-03-06T15:51:07.953Z,51.291229
2023-03-06T15:52:07.880Z,51.291237
2023-03-06T15:53:07.885Z,51.291218
2023-03-06T15:54:12.210Z,51.291252
2023-03-06T15:55:08.886Z,51.291134
2023-03-06T15:56:07.827Z,51.291138
2023-03-06T15:57:07.835Z,51.291168
2023-03-06T15:58:07.810Z,51.291157
2023-03-06T15:59:07.915Z,51.291245
2023-03-06T16:00:12.914Z,51.291344
2023-03-06T16:01:07.768Z,51.291237
2023-03-06T16:02:07.774Z,51.291164
2023-03-06T16:03:07.735Z,51.291058
2023-03-06T16:04:07.775Z,51.291100
2023-03-06T16:05:07.737Z,51.291130
2023-03-06T16:06:07.725Z,51.291218
2023-03-06T16:07:07.858Z,51.291195
2023-03-06T16:08:09.046Z,51.291252
2023-03-06T16:09:07.856Z,51.291138
2023-03-06T16:10:07.654Z,51.291218
2023-03-06T16:11:07.653Z,51.291145
2023-03-06T16:12:07.678Z,51.290947
2023-03-06T16:13:07.663Z,51.291115
2023-03-06T16:14:07.602Z,51.291237
2023-03-06T16:15:07.623Z,51.291214
2023-03-06T16:16:07.729Z,51.291454
2023-03-06T16:17:07.594Z,51.291401
2023-03-06T16:18:07.609Z,51.291397
2023-03-06T16:19:11.451Z,51.291443
2023-03-06T16:20:07.550Z,51.291298
2023-03-06T16:21:07.545Z,51.291237
2023-03-06T16:22:07.518Z,51.291203
2023-03-06T16:23:08.253Z,51.291260
2023-03-06T16:24:07.489Z,51.291275
2023-03-06T16:25:07.517Z,51.291286
2023-03-06T16:26:07.457Z,51.291306
2023-03-06T16:27:07.460Z,51.291214
2023-03-06T16:28:07.562Z,51.291237
2023-03-06T16:29:07.433Z,51.291122
2023-03-06T16:30:07.418Z,51.291191
2023-03-06T16:31:07.455Z,51.291241
2023-03-06T16:32:07.444Z,51.291233
2023-03-06T16:33:07.421Z,51.291210
2023-03-06T16:34:07.434Z,51.291218
2023-03-06T16:35:07.363Z,51.291203
2023-03-06T16:36:07.339Z,51.291348
2023-03-06T16:37:07.331Z,51.291302
2023-03-06T16:38:07.343Z,51.291344
2023-03-06T16:39:07.330Z,51.291183
2023-03-06T16:40:08.313Z,51.291393
2023-03-06T16:41:07.293Z,51.291294
2023-03-06T16:42:07.284Z,51.291355
2023-03-06T16:43:07.274Z,51.291451
2023-03-06T16:44:07.305Z,51.291473
2023-03-06T16:45:07.276Z,51.291286
2023-03-06T16:46:07.252Z,51.291306
2023-03-06T16:47:07.250Z,51.291420
2023-03-06T16:48:07.200Z,51.291424
2023-03-06T16:49:07.220Z,51.291409
2023-03-06T16:50:07.448Z,51.291264
2023-03-06T16:51:07.197Z,51.291306
2023-03-06T16:52:07.164Z,51.291309
2023-03-06T16:53:07.167Z,51.291241
2023-03-06T16:54:07.163Z,51.291336
2023-03-06T16:55:07.175Z,51.291256
2023-03-06T16:56:07.154Z,51.291283
2023-03-06T16:57:07.110Z,51.291206
2023-03-06T16:58:07.106Z,51.291256
2023-03-06T16:59:07.301Z,51.291267
2023-03-06T17:00:07.146Z,51.291214
2023-03-06T17:01:07.086Z,51.291260
2023-03-06T17:02:07.084Z,51.291241
2023-03-06T17:03:07.050Z,51.291241
2023-03-06T17:04:07.031Z,51.291279
2023-03-06T17:05:07.066Z,51.291252
2023-03-06T17:06:07.050Z,51.291241
2023-03-06T17:07:07.009Z,51.291264
2023-03-06T17:08:06.987Z,51.291321
2023-03-06T17:09:06.979Z,51.291393
2023-03-06T17:10:06.967Z,51.291248
2023-03-06T17:11:06.984Z,51.291183
2023-03-06T17:12:06.948Z,51.291172
2023-03-06T17:13:06.927Z,51.291206
2023-03-06T17:14:07.086Z,51.291260
2023-03-06T17:15:06.918Z,51.291237
2023-03-06T17:16:06.951Z,51.291161
2023-03-06T17:17:06.929Z,51.291233
2023-03-06T17:18:06.879Z,51.291271
2023-03-06T17:19:06.864Z,51.291206
2023-03-06T17:20:06.870Z,51.291241
2023-03-06T17:21:06.852Z,51.291172
2023-03-06T17:22:06.866Z,51.291260
2023-03-06T17:23:06.845Z,51.291245
2023-03-06T17:24:06.825Z,51.291336
2023-03-06T17:25:06.800Z,51.291332
2023-03-06T17:26:06.803Z,51.291290
2023-03-06T17:27:06.813Z,51.291245
2023-03-06T17:28:06.768Z,51.291138
2023-03-06T17:29:07.236Z,51.291229
2023-03-06T17:30:06.747Z,51.291218
2023-03-06T17:31:06.822Z,51.291203
2023-03-06T17:32:06.737Z,51.291321
2023-03-06T17:33:06.766Z,51.291176
2023-03-06T17:34:06.704Z,51.291149
2023-03-06T17:35:06.666Z,51.291157
2023-03-06T17:36:06.661Z,51.291439
2023-03-06T17:37:06.727Z,51.291447
2023-03-06T17:38:06.670Z,51.291325
2023-03-06T17:39:06.652Z,51.291317
2023-03-06T17:40:06.639Z,51.291260
2023-03-06T17:41:06.615Z,51.291187
2023-03-06T17:42:06.603Z,51.291134
2023-03-06T17:43:06.633Z,51.291180
2023-03-06T17:44:06.596Z,51.291161
2023-03-06T17:45:07.143Z,51.291203
2023-03-06T17:46:06.701Z,51.291176
2023-03-06T17:47:06.558Z,51.291134
2023-03-06T17:48:06.524Z,51.291225
2023-03-06T17:49:06.544Z,51.291283
2023-03-06T17:50:06.504Z,51.291233
2023-03-06T17:51:06.528Z,51.291252
2023-03-06T17:52:06.484Z,51.291241
2023-03-06T17:53:06.494Z,51.291168
2023-03-06T17:54:07.008Z,51.291142
2023-03-06T17:55:06.444Z,51.291241
2023-03-06T17:56:06.436Z,51.291294
2023-03-06T17:57:06.451Z,51.291225
2023-03-06T17:58:06.437Z,51.291157
2023-03-06T17:59:06.455Z,51.291237
2023-03-06T18:00:06.400Z,51.291382
2023-03-06T18:01:06.382Z,51.291183
2023-03-06T18:02:06.627Z,51.291237
2023-03-06T18:03:06.402Z,51.291302
2023-03-06T18:04:06.336Z,51.291401
2023-03-06T18:05:06.372Z,51.291313
2023-03-06T18:06:06.330Z,51.291260
2023-03-06T18:07:06.320Z,51.291222
2023-03-06T18:08:06.278Z,51.291252
2023-03-06T18:09:06.317Z,51.291153
2023-03-06T18:10:06.345Z,51.291256
2023-03-06T18:11:06.263Z,51.291283
2023-03-06T18:12:06.266Z,51.291279
2023-03-06T18:13:06.244Z,51.291401
2023-03-06T18:14:06.256Z,51.291302
2023-03-06T18:15:06.269Z,51.291256
2023-03-06T18:16:06.293Z,51.291237
2023-03-06T18:17:06.199Z,51.291073
2023-03-06T18:18:06.188Z,51.291023
2023-03-06T18:19:06.361Z,51.291286
2023-03-06T18:20:06.214Z,51.291298
2023-03-06T20:15:24.126Z,51.291119
2023-03-06T20:16:23.691Z,51.291126
2023-03-06T20:17:23.727Z,51.291126
2023-03-06T20:18:23.652Z,51.291218
2023-03-06T20:19:23.660Z,51.291214
2023-03-06T20:20:23.632Z,51.291290
2023-03-06T20:21:23.745Z,51.291462
2023-03-06T20:22:23.666Z,51.291260
2023-03-06T20:23:23.627Z,51.291168
2023-03-06T20:24:23.622Z,51.291096
2023-03-06T20:25:23.580Z,51.291191
2023-03-06T20:26:23.566Z,51.291176
2023-03-06T20:27:23.543Z,51.291191
2023-03-06T20:28:23.636Z,51.291142
2023-03-06T20:29:23.612Z,51.291332
2023-03-06T20:30:24.259Z,51.291130
2023-03-06T20:31:23.614Z,51.291115
2023-03-06T20:32:23.782Z,51.291290
2023-03-06T20:33:23.589Z,51.291393
2023-03-06T20:34:23.492Z,51.291622
2023-03-06T20:35:23.537Z,51.291889
2023-03-06T20:36:24.515Z,51.291492
2023-03-06T20:37:23.501Z,51.291138
2023-03-06T20:38:25.319Z,51.291462
2023-03-06T20:39:23.498Z,51.291473
2023-03-06T20:40:23.453Z,51.291210
2023-03-06T20:41:23.483Z,51.291409
2023-03-06T20:42:23.431Z,51.291142
2023-03-06T20:43:23.449Z,51.291157
2023-03-06T20:44:23.437Z,51.291164
2023-03-06T20:45:23.389Z,51.291374
2023-03-06T20:46:25.295Z,51.291218
2023-03-06T20:47:23.872Z,51.291145
2023-03-06T20:48:23.476Z,51.291206
2023-03-06T20:49:26.174Z,51.291401
2023-03-06T20:50:25.408Z,51.291290
2023-03-06T20:51:24.303Z,51.291096
2023-03-06T22:15:11.912Z,51.291912
2023-03-06T22:16:11.949Z,51.291912
2023-03-06T22:17:11.889Z,51.291912
2023-03-06T22:18:11.829Z,51.291912
2023-03-06T22:19:11.796Z,51.291912
2023-03-06T22:20:11.852Z,51.291912
2023-03-06T22:21:11.779Z,51.291912
2023-03-06T22:22:11.821Z,51.291912
2023-03-06T22:23:11.748Z,51.291912
2023-03-06T22:24:11.729Z,51.291912
2023-03-06T22:25:11.741Z,51.291912
2023-03-06T22:26:11.772Z,51.291912
2023-03-06T22:27:11.739Z,51.291912
2023-03-06T22:28:11.689Z,51.291912
2023-03-06T22:29:11.690Z,51.291492
2023-03-06T22:30:11.662Z,51.291248
2023-03-06T22:31:11.694Z,51.291256
2023-03-06T22:32:11.790Z,51.291294
2023-03-06T22:33:11.630Z,51.291309
2023-03-06T22:34:11.650Z,51.291306
2023-03-06T22:35:11.625Z,51.291107
2023-03-06T22:36:11.702Z,51.291172
2023-03-06T22:37:11.647Z,51.291256
2023-03-06T22:38:11.644Z,51.291283
2023-03-06T22:39:11.592Z,51.291279
2023-03-06T22:40:11.555Z,51.291176
2023-03-06T22:41:11.621Z,51.291245
2023-03-06T22:42:11.628Z,51.291100
2023-03-06T22:43:11.531Z,51.291218
2023-03-06T22:44:11.509Z,51.291134
2023-03-06T22:45:11.540Z,51.291271
2023-03-06T22:46:11.555Z,51.291275
2023-03-06T22:47:11.481Z,51.291195
2023-03-06T22:48:11.524Z,51.291195
2023-03-06T22:49:11.466Z,51.291302
2023-03-06T22:50:11.469Z,51.291363
2023-03-06T22:51:11.430Z,51.291283
2023-03-06T22:52:12.079Z,51.291203
2023-03-06T22:53:11.491Z,51.291279
2023-03-06T22:54:11.396Z,51.291187
2023-03-06T22:55:11.400Z,51.291111
2023-03-06T22:56:11.425Z,51.291195
2023-03-06T22:57:11.372Z,51.291233
2023-03-06T22:58:12.372Z,51.291290
2023-03-06T22:59:11.359Z,51.291183
2023-03-06T23:00:11.349Z,51.291183
2023-03-06T23:01:11.372Z,51.291195
2023-03-06T23:02:12.302Z,51.291214
2023-03-06T23:03:11.297Z,51.291233
2023-03-06T23:04:11.492Z,51.291279
2023-03-06T23:05:11.338Z,51.291351
2023-03-06T23:06:11.294Z,51.291397
2023-03-06T23:07:11.301Z,51.291302
2023-03-06T23:08:11.252Z,51.291111
2023-03-06T23:09:11.269Z,51.291164
2023-03-06T23:10:11.235Z,51.291233
2023-03-06T23:11:11.286Z,51.291389
2023-03-06T23:12:11.192Z,51.291225
2023-03-06T23:13:11.183Z,51.291164
2023-03-06T23:14:11.240Z,51.291080
2023-03-06T23:15:11.177Z,51.291138
2023-03-06T23:16:11.169Z,51.291054
2023-03-06T23:17:11.471Z,51.291103
2023-03-06T23:18:11.149Z,51.291145
2023-03-06T23:19:11.139Z,51.291126